Florence/Peretola Airport

Airport
ICAO code: 
LIRQ
IATA Code: 
FLR
Summary
ICAO Region: 
EUR
Territory: 
Location: 
Florence, Toscana
Serving: 
Florence
Elevation: 
144 ft
Coordinates: 
Aerial View: 
43° 48' 35.268" N, 11° 12' 17.986" E
Metar
Observation
LIRQ 010420Z 32003KT 280V040 9999 BKN050 08/03 Q1017
Station
Firenze / Peretola
Date/Time
2021-12-01 04:20:00
Wind direction
320°
Wind speed
03 kts
Lowest cloud amount
broken clouds
Temperature
8°C
Dew point
3°C
Humidity
70%
QNH
1017 hPa
Weather condition
n/a

Peretola Airport, Florence Airport or Amerigo Vespucci Airport is an airport located close to Florence, Italy. It is one of two main airports in the Tuscany region, the other being Galileo Galilei International Airport near Pisa.

Climatology

Humid “subtropical” climate (Köppen climate classification Cfa) - characterized by hot, humid summers and cool winters. Significant amounts of precipitation occur in all seasons in most areas. Winter rainfall (and sometimes snowfall) is associated with large storms that the westerlies steer from west to east. Most summer rainfall occurs during thunderstorms.

Runways

Designator Length Width Surface Rops
5/23 1654 30 ASP Yes/Yes
Airport map: 
Aerial View: 

SKYbrary Partners:

Safety knowledge contributed by: